sensor_id;sensor_type;location;lat;lon;timestamp;temperature;humidity
9201;DHT22;4635;48.686;9.008;2022-09-09T18:47:43;16.70;99.90
9201;DHT22;4635;48.686;9.008;2022-09-09T18:50:24;16.80;99.90
9201;DHT22;4635;48.686;9.008;2022-09-09T18:53:05;16.70;99.90
9201;DHT22;4635;48.686;9.008;2022-09-09T18:56:04;16.70;99.90
9201;DHT22;4635;48.686;9.008;2022-09-09T18:59:20;16.70;99.90
9201;DHT22;4635;48.686;9.008;2022-09-09T19:01:58;16.60;99.90
9201;DHT22;4635;48.686;9.008;2022-09-09T19:05:00;16.70;99.90
9201;DHT22;4635;48.686;9.008;2022-09-09T19:08:05;16.60;99.90
9201;DHT22;4635;48.686;9.008;2022-09-09T19:11:24;16.50;99.90
9201;DHT22;4635;48.686;9.008;2022-09-09T19:14:25;16.40;99.90
9201;DHT22;4635;48.686;9.008;2022-09-09T19:17:22;16.30;99.90
9201;DHT22;4635;48.686;9.008;2022-09-09T19:30:22;16.00;99.90
9201;DHT22;4635;48.686;9.008;2022-09-09T19:33:12;15.90;99.90
9201;DHT22;4635;48.686;9.008;2022-09-09T19:36:05;15.90;99.90
9201;DHT22;4635;48.686;9.008;2022-09-09T19:39:15;15.90;99.90
9201;DHT22;4635;48.686;9.008;2022-09-09T19:42:24;15.80;99.90
9201;DHT22;4635;48.686;9.008;2022-09-09T19:45:13;15.80;99.90
9201;DHT22;4635;48.686;9.008;2022-09-09T19:47:59;15.70;99.90
9201;DHT22;4635;48.686;9.008;2022-09-09T19:50:55;15.70;99.90
9201;DHT22;4635;48.686;9.008;2022-09-09T19:53:45;15.70;99.90
9201;DHT22;4635;48.686;9.008;2022-09-09T19:56:42;15.60;99.90
9201;DHT22;4635;48.686;9.008;2022-09-09T19:59:52;15.30;99.90
9201;DHT22;4635;48.686;9.008;2022-09-09T20:03:17;15.60;99.90
9201;DHT22;4635;48.686;9.008;2022-09-09T20:07:01;15.50;99.90
9201;DHT22;4635;48.686;9.008;2022-09-09T20:09:13;15.50;99.90
9201;DHT22;4635;48.686;9.008;2022-09-09T20:11:55;15.40;99.90
9201;DHT22;4635;48.686;9.008;2022-09-09T20:15:09;15.40;99.90
9201;DHT22;4635;48.686;9.008;2022-09-09T20:17:55;15.40;99.90
9201;DHT22;4635;48.686;9.008;2022-09-09T20:20:46;15.30;99.90
9201;DHT22;4635;48.686;9.008;2022-09-09T20:23:32;15.30;99.90
9201;DHT22;4635;48.686;9.008;2022-09-09T20:26:11;15.30;99.90
9201;DHT22;4635;48.686;9.008;2022-09-09T20:28:50;15.30;99.90
9201;DHT22;4635;48.686;9.008;2022-09-09T20:31:51;15.30;99.90
9201;DHT22;4635;48.686;9.008;2022-09-09T20:34:43;15.30;99.90
9201;DHT22;4635;48.686;9.008;2022-09-09T20:37:53;15.20;99.90
9201;DHT22;4635;48.686;9.008;2022-09-09T20:40:38;15.10;99.90
9201;DHT22;4635;48.686;9.008;2022-09-09T20:43:14;15.10;99.90
9201;DHT22;4635;48.686;9.008;2022-09-09T20:46:01;15.10;99.90
9201;DHT22;4635;48.686;9.008;2022-09-09T20:48:44;15.10;99.90
9201;DHT22;4635;48.686;9.008;2022-09-09T20:51:19;15.10;99.90
9201;DHT22;4635;48.686;9.008;2022-09-09T20:54:05;15.10;99.90
9201;DHT22;4635;48.686;9.008;2022-09-09T20:56:40;15.00;99.90
9201;DHT22;4635;48.686;9.008;2022-09-09T20:59:26;15.00;99.90
9201;DHT22;4635;48.686;9.008;2022-09-09T21:02:04;15.00;99.90
9201;DHT22;4635;48.686;9.008;2022-09-09T21:04:43;14.90;99.90
9201;DHT22;4635;48.686;9.008;2022-09-09T21:07:37;14.90;99.90
9201;DHT22;4635;48.686;9.008;2022-09-09T21:10:20;14.90;99.90
9201;DHT22;4635;48.686;9.008;2022-09-09T21:13:38;14.90;99.90
9201;DHT22;4635;48.686;9.008;2022-09-09T21:19:52;14.80;99.90
9201;DHT22;4635;48.686;9.008;2022-09-09T21:22:30;14.80;99.90
9201;DHT22;4635;48.686;9.008;2022-09-09T21:25:18;14.70;99.90
9201;DHT22;4635;48.686;9.008;2022-09-09T21:27:51;14.70;99.90
9201;DHT22;4635;48.686;9.008;2022-09-09T21:30:29;14.70;99.90
9201;DHT22;4635;48.686;9.008;2022-09-09T21:33:05;14.70;99.90
9201;DHT22;4635;48.686;9.008;2022-09-09T21:35:50;14.70;99.90
9201;DHT22;4635;48.686;9.008;2022-09-09T21:38:30;14.60;99.90
9201;DHT22;4635;48.686;9.008;2022-09-09T21:41:13;14.60;99.90
9201;DHT22;4635;48.686;9.008;2022-09-09T21:43:53;14.60;99.90
9201;DHT22;4635;48.686;9.008;2022-09-09T21:46:27;14.70;99.90
9201;DHT22;4635;48.686;9.008;2022-09-09T21:49:05;14.70;99.90
9201;DHT22;4635;48.686;9.008;2022-09-09T21:51:56;14.70;99.90
9201;DHT22;4635;48.686;9.008;2022-09-09T21:54:33;14.70;99.90
9201;DHT22;4635;48.686;9.008;2022-09-09T21:57:12;14.80;99.90
9201;DHT22;4635;48.686;9.008;2022-09-09T21:59:50;14.80;99.90
9201;DHT22;4635;48.686;9.008;2022-09-09T22:02:28;14.80;99.90
9201;DHT22;4635;48.686;9.008;2022-09-09T22:05:07;14.80;99.90
9201;DHT22;4635;48.686;9.008;2022-09-09T22:07:47;14.80;99.90
9201;DHT22;4635;48.686;9.008;2022-09-09T22:10:25;14.80;99.90
9201;DHT22;4635;48.686;9.008;2022-09-09T22:13:06;14.80;99.90
9201;DHT22;4635;48.686;9.008;2022-09-09T22:15:45;14.90;99.90
9201;DHT22;4635;48.686;9.008;2022-09-09T22:18:30;14.90;99.90
9201;DHT22;4635;48.686;9.008;2022-09-09T22:21:07;14.90;99.90
9201;DHT22;4635;48.686;9.008;2022-09-09T22:23:52;14.90;99.90
9201;DHT22;4635;48.686;9.008;2022-09-09T22:26:31;14.90;99.90
9201;DHT22;4635;48.686;9.008;2022-09-09T22:29:06;15.00;99.90
9201;DHT22;4635;48.686;9.008;2022-09-09T22:31:42;15.00;99.90
9201;DHT22;4635;48.686;9.008;2022-09-09T22:34:17;15.00;99.90
9201;DHT22;4635;48.686;9.008;2022-09-09T22:36:56;15.00;99.90
9201;DHT22;4635;48.686;9.008;2022-09-09T22:39:33;15.00;99.90
9201;DHT22;4635;48.686;9.008;2022-09-09T22:42:10;15.00;99.90
9201;DHT22;4635;48.686;9.008;2022-09-09T22:44:44;14.90;99.90
9201;DHT22;4635;48.686;9.008;2022-09-09T22:47:21;14.90;99.90
9201;DHT22;4635;48.686;9.008;2022-09-09T22:49:58;15.00;99.90
9201;DHT22;4635;48.686;9.008;2022-09-09T22:52:39;15.00;99.90
9201;DHT22;4635;48.686;9.008;2022-09-09T22:55:19;14.90;99.90
9201;DHT22;4635;48.686;9.008;2022-09-09T22:57:55;14.80;99.90
9201;DHT22;4635;48.686;9.008;2022-09-09T23:00:28;14.50;99.90
9201;DHT22;4635;48.686;9.008;2022-09-09T23:03:04;14.30;99.90
9201;DHT22;4635;48.686;9.008;2022-09-09T23:05:38;13.90;99.90
9201;DHT22;4635;48.686;9.008;2022-09-09T23:08:11;13.60;99.90
9201;DHT22;4635;48.686;9.008;2022-09-09T23:10:49;13.50;99.90
9201;DHT22;4635;48.686;9.008;2022-09-09T23:13:26;13.40;99.90
9201;DHT22;4635;48.686;9.008;2022-09-09T23:16:10;13.30;99.90
9201;DHT22;4635;48.686;9.008;2022-09-09T23:18:46;13.30;99.90
9201;DHT22;4635;48.686;9.008;2022-09-09T23:21:33;13.20;99.90
9201;DHT22;4635;48.686;9.008;2022-09-09T23:24:19;13.10;99.90
9201;DHT22;4635;48.686;9.008;2022-09-09T23:43:06;13.00;99.90
9201;DHT22;4635;48.686;9.008;2022-09-09T23:45:54;13.00;99.90
9201;DHT22;4635;48.686;9.008;2022-09-09T23:48:37;13.00;99.90
9201;DHT22;4635;48.686;9.008;2022-09-09T23:51:32;12.90;99.90
9201;DHT22;4635;48.686;9.008;2022-09-09T23:54:09;12.90;99.90
9201;DHT22;4635;48.686;9.008;2022-09-09T23:56:47;12.90;99.90
9201;DHT22;4635;48.686;9.008;2022-09-09T23:59:24;13.00;99.90
